Rickenbacker AFB, Ohio
Current Conditions -  °F | °C
As of 9:55 AM on Tuesday 21 Oct 2014 (Local Time) from KLCK Reporting Station
Overcast Overcast  
Wind Chill: 45°   Ceiling: 1700
Heat Index: 49°   Visibility: 10mi
Dew Point: 45°   Wind: 9mph
Humidity: 86%   Direction: 320°NW
Pressure: 29.96"   Gusts: 16mph
Location:  39.8164°N, 82.9345°W
Report Text: KLCK 211355Z AUTO 32008G14KT 10SM OVC017 09/07 A2996 RMK AO2 T00940072
Loading
Personal Weather Stations






























Interactive Weather Map
Tropical Storm Tracking
New forecast layout! Learn more

10-Day Weather Forecast

Advertisements
Track Severe Weather on mobile